Time;durP1;ratioP1;P1;durP2;ratioP2;P2;SDS_P1;SDS_P2;PMS_P1;PMS_P2;Temp;Humidity;BMP_temperature;BMP_pressure;BME280_temperature;BME280_humidity;BME280_pressure;Samples;Min_cycle;Max_cycle;Signal;HPM_P1;HPM_P2
2023/04/02 00:00:18;;;;;;;1.13;0.80;;;15.80;77.30;;;;;;10322450;28;20026;-56
2023/04/02 00:05:29;;;;;;;1.67;0.88;;;15.80;77.40;;;;;;10322465;28;20122;-57
2023/04/02 00:10:59;;;;;;;1.20;0.93;;;15.80;77.30;;;;;;10322152;28;20035;-56
2023/04/02 00:16:04;;;;;;;4.10;1.10;;;15.70;77.20;;;;;;10323225;28;20113;-55
2023/04/02 00:21:29;;;;;;;1.13;0.77;;;15.70;77.20;;;;;;10323402;28;20014;-56
2023/04/02 00:26:43;;;;;;;2.03;0.95;;;15.70;77.30;;;;;;10321986;28;20459;-55
2023/04/02 00:31:47;;;;;;;1.33;0.95;;;15.70;77.10;;;;;;10321705;28;20030;-56
2023/04/02 00:36:49;;;;;;;1.40;0.90;;;15.70;77.10;;;;;;10322960;28;20477;-56
2023/04/02 00:42:03;;;;;;;2.60;0.90;;;15.70;77.10;;;;;;10327911;28;20035;-55
2023/04/02 00:47:23;;;;;;;1.83;1.30;;;15.70;77.10;;;;;;10329590;28;20058;-57
2023/04/02 00:52:29;;;;;;;2.03;1.17;;;15.70;77.20;;;;;;10328998;28;20381;-56
2023/04/02 00:57:32;;;;;;;2.53;1.30;;;15.70;77.70;;;;;;10329221;28;20035;-56
2023/04/02 01:02:37;;;;;;;1.58;1.13;;;15.60;77.10;;;;;;10339627;28;20030;-56
2023/04/02 01:07:53;;;;;;;1.83;1.35;;;15.70;77.00;;;;;;10329932;28;20074;-55
2023/04/02 01:13:15;;;;;;;1.98;1.50;;;15.60;77.10;;;;;;10329503;28;20425;-57
2023/04/02 01:18:38;;;;;;;2.30;1.35;;;15.60;77.00;;;;;;10329326;28;20370;-57
2023/04/02 01:24:04;;;;;;;1.70;1.35;;;15.60;77.00;;;;;;10329382;28;20026;-56
2023/04/02 01:29:12;;;;;;;1.45;1.08;;;15.60;77.00;;;;;;10328087;28;20027;-56
2023/04/02 01:34:20;;;;;;;1.77;1.27;;;15.60;77.00;;;;;;10327399;28;20025;-56
2023/04/02 01:39:41;;;;;;;2.05;1.45;;;15.60;77.00;;;;;;10328697;28;20026;-54
2023/04/02 01:44:58;;;;;;;2.10;1.35;;;15.60;77.10;;;;;;10328486;28;20031;-56
2023/04/02 01:50:21;;;;;;;1.95;1.10;;;15.50;77.50;;;;;;10326564;28;20486;-56
2023/04/02 01:55:49;;;;;;;2.33;1.23;;;15.60;77.00;;;;;;10327011;28;20105;-57
2023/04/02 02:00:58;;;;;;;1.95;1.55;;;15.50;76.90;;;;;;10335091;28;20488;-57
2023/04/02 02:06:01;;;;;;;1.70;1.42;;;15.50;76.90;;;;;;10327165;28;20405;-56
2023/04/02 02:11:02;;;;;;;3.10;1.38;;;15.50;76.90;;;;;;10326089;28;20026;-56
2023/04/02 02:16:06;;;;;;;2.30;1.40;;;15.50;76.90;;;;;;10327230;28;20445;-56
2023/04/02 02:21:08;;;;;;;1.83;1.30;;;15.50;76.80;;;;;;10325920;28;20053;-56
2023/04/02 02:26:12;;;;;;;1.77;1.38;;;15.50;76.80;;;;;;10325639;28;20373;-57
2023/04/02 02:31:21;;;;;;;2.20;1.73;;;15.50;76.70;;;;;;10309136;28;20033;-55
2023/04/02 02:36:51;;;;;;;2.63;1.27;;;15.50;76.70;;;;;;10325583;28;20109;-57
2023/04/02 02:42:01;;;;;;;2.05;1.42;;;15.50;76.70;;;;;;10325252;28;20037;-56
2023/04/02 02:47:04;;;;;;;;;;;15.50;76.80;;;;;;10324957;28;20428;-56
2023/04/02 02:52:08;;;;;;;2.30;1.38;;;15.40;76.70;;;;;;10340870;28;19942;-57
2023/04/02 02:57:35;;;;;;;1.75;1.33;;;15.40;76.70;;;;;;10325916;28;20538;-57
2023/04/02 03:02:37;;;;;;;1.73;1.10;;;15.40;76.70;;;;;;10335479;28;20019;-56
2023/04/02 03:07:38;;;;;;;2.55;1.58;;;15.40;76.60;;;;;;10323913;28;20045;-56
2023/04/02 03:12:44;;;;;;;1.67;1.30;;;15.40;76.60;;;;;;10325145;28;20374;-57
2023/04/02 03:17:59;;;;;;;1.98;1.45;;;15.40;76.50;;;;;;10324838;28;20050;-57
2023/04/02 03:23:31;;;;;;;2.38;1.55;;;15.40;76.60;;;;;;10323639;28;20105;-57
2023/04/02 03:28:37;;;;;;;2.05;1.65;;;15.40;76.60;;;;;;10324326;28;20036;-56
2023/04/02 03:34:16;;;;;;;2.53;1.95;;;15.30;76.50;;;;;;10322836;28;20025;-56
2023/04/02 03:39:37;;;;;;;2.28;1.80;;;15.40;76.50;;;;;;10324044;28;20023;-56
2023/04/02 03:44:56;;;;;;;1.90;1.45;;;15.30;76.40;;;;;;10322941;28;20593;-55
2023/04/02 03:50:10;;;;;;;2.25;1.40;;;15.30;76.40;;;;;;10322695;28;20050;-56
2023/04/02 03:55:24;;;;;;;2.80;1.90;;;15.40;76.40;;;;;;10312568;28;20037;-56
2023/04/02 04:00:50;;;;;;;1.83;1.45;;;15.40;75.30;;;;;;10333654;28;20030;-56
2023/04/02 04:06:05;;;;;;;2.50;1.40;;;15.60;75.00;;;;;;10323600;28;20177;-56
2023/04/02 04:11:12;;;;;;;2.17;1.63;;;15.70;74.40;;;;;;10322393;28;20037;-54
2023/04/02 04:16:20;;;;;;;2.03;1.70;;;15.90;74.00;;;;;;10311942;28;20019;-56
2023/04/02 04:21:29;;;;;;;1.65;1.20;;;16.00;73.50;;;;;;10329607;28;20037;-56
2023/04/02 04:27:02;;;;;;;2.30;1.50;;;16.10;73.20;;;;;;10328782;28;20077;-56
2023/04/02 04:32:16;;;;;;;2.85;2.20;;;16.10;73.10;;;;;;10340430;28;20031;-56
2023/04/02 04:37:34;;;;;;;3.22;1.63;;;16.10;73.00;;;;;;10328824;28;20488;-57
2023/04/02 04:42:39;;;;;;;3.20;1.70;;;16.20;73.00;;;;;;10327646;28;20035;-56
2023/04/02 04:48:04;;;;;;;3.17;2.70;;;16.20;72.90;;;;;;10325727;28;20029;-56
2023/04/02 04:53:19;;;;;;;4.85;2.33;;;16.30;73.00;;;;;;10325158;28;20026;-55
2023/04/02 04:58:26;;;;;;;6.32;2.50;;;16.30;73.10;;;;;;10326477;28;20136;-56
2023/04/02 05:04:00;;;;;;;4.30;2.50;;;16.40;73.30;;;;;;10336225;28;20093;-55
2023/04/02 05:09:21;;;;;;;3.60;2.33;;;16.40;73.40;;;;;;10327029;28;20046;-56
2023/04/02 05:15:03;;;;;;;6.70;3.70;;;16.50;73.50;;;;;;10327860;28;20089;-56
2023/04/02 05:20:16;;;;;;;8.38;4.13;;;16.40;75.20;;;;;;10312602;28;20034;-57
2023/04/02 05:25:26;;;;;;;4.60;3.33;;;16.50;75.30;;;;;;10322921;28;20073;-58
2023/04/02 05:30:27;;;;;;;9.85;4.03;;;16.60;75.10;;;;;;10326904;28;20493;-57
2023/04/02 05:35:33;;;;;;;7.00;4.07;;;16.40;75.20;;;;;;10327209;28;20026;-56
2023/04/02 05:40:45;;;;;;;12.52;3.53;;;16.40;75.20;;;;;;10326525;28;20042;-56
2023/04/02 05:45:54;;;;;;;14.98;4.45;;;16.30;75.40;;;;;;10337425;28;20030;-57
2023/04/02 05:50:57;;;;;;;7.43;3.70;;;16.50;75.10;;;;;;10323401;28;20065;-57
2023/04/02 05:56:17;;;;;;;20.08;6.53;;;16.50;74.70;;;;;;10321087;28;20018;-58
2023/04/02 06:01:48;;;;;;;13.02;3.90;;;16.50;74.70;;;;;;10323343;28;20429;-54
2023/04/02 06:07:15;;;;;;;17.20;4.53;;;16.50;75.50;;;;;;10322782;28;20046;-55
2023/04/02 06:12:31;;;;;;;12.63;4.68;;;16.40;75.10;;;;;;10325050;28;20069;-53
2023/04/02 06:18:10;;;;;;;19.85;4.97;;;16.30;75.00;;;;;;10326193;28;20015;-56
2023/04/02 06:23:38;;;;;;;10.55;3.30;;;16.20;75.00;;;;;;10322567;28;20019;-55
2023/04/02 06:29:26;;;;;;;13.27;3.83;;;16.10;75.00;;;;;;10323925;28;20038;-53
2023/04/02 06:34:30;;;;;;;19.90;3.42;;;16.00;75.20;;;;;;10323375;28;20031;-54
2023/04/02 06:39:31;;;;;;;18.20;4.70;;;16.00;75.10;;;;;;10321862;28;20030;-54
2023/04/02 06:44:35;;;;;;;10.88;3.95;;;16.00;75.60;;;;;;10324147;28;20050;-55
2023/04/02 06:50:02;;;;;;;14.90;3.97;;;16.00;75.20;;;;;;10320913;28;20214;-54
2023/04/02 06:55:19;;;;;;;14.00;3.90;;;16.00;75.30;;;;;;10320342;28;20065;-51
2023/04/02 07:00:46;;;;;;;15.70;3.83;;;16.00;75.40;;;;;;10333132;28;20406;-54
2023/04/02 07:05:47;;;;;;;11.50;3.22;;;16.00;75.20;;;;;;10322818;28;20137;-53
2023/04/02 07:10:48;;;;;;;14.50;3.53;;;16.00;75.50;;;;;;10323045;28;20034;-53
2023/04/02 07:15:53;;;;;;;10.32;3.53;;;16.00;75.20;;;;;;10321466;28;20030;-53
2023/04/02 07:20:55;;;;;;;10.65;3.10;;;16.00;75.40;;;;;;10321355;28;20034;-55
2023/04/02 07:25:57;;;;;;;12.20;2.92;;;16.00;75.00;;;;;;10322172;28;20011;-53
2023/04/02 07:30:58;;;;;;;10.00;2.85;;;16.00;75.10;;;;;;10321368;28;20285;-51
2023/04/02 07:35:58;;;;;;;19.23;3.47;;;15.90;75.00;;;;;;10322361;28;20466;-49
2023/04/02 07:41:05;;;;;;;19.80;4.97;;;15.90;74.90;;;;;;10320173;28;20125;-55
2023/04/02 07:46:07;;;;;;;30.92;6.50;;;15.80;75.00;;;;;;10317052;28;20622;-56
2023/04/02 07:51:19;;;;;;;16.05;3.28;;;15.90;76.00;;;;;;10320098;28;20281;-55
2023/04/02 07:56:21;;;;;;;20.17;5.40;;;15.90;75.80;;;;;;10319553;28;20037;-56
2023/04/02 08:01:25;;;;;;;20.08;3.80;;;16.10;76.10;;;;;;10332511;28;20101;-57
2023/04/02 08:06:26;;;;;;;16.67;3.30;;;16.20;75.70;;;;;;10315649;28;20105;-56
2023/04/02 08:11:27;;;;;;;16.73;3.72;;;16.00;75.60;;;;;;10320974;28;20436;-47
2023/04/02 08:16:41;;;;;;;14.77;4.15;;;15.90;76.60;;;;;;10320337;28;20117;-56
2023/04/02 08:21:42;;;;;;;15.07;3.42;;;15.80;75.60;;;;;;10319526;28;20029;-55
2023/04/02 08:26:45;;;;;;;16.85;4.50;;;15.80;75.50;;;;;;10318053;28;20042;-55
2023/04/02 08:31:46;;;;;;;27.83;4.80;;;15.90;75.50;;;;;;10321635;28;20473;-56
2023/04/02 08:36:46;;;;;;;23.52;4.30;;;15.90;75.00;;;;;;10321380;28;20125;-57
2023/04/02 08:42:17;;;;;;;22.13;4.43;;;15.90;74.40;;;;;;10319208;28;20033;-54
2023/04/02 08:47:19;;;;;;;21.73;4.85;;;15.90;74.20;;;;;;10317196;28;20069;-54
2023/04/02 08:52:30;;;;;;;32.95;4.90;;;15.90;74.40;;;;;;10318753;28;20023;-55
2023/04/02 08:57:34;;;;;;;28.98;4.97;;;15.90;74.30;;;;;;10320878;28;20022;-56
2023/04/02 09:02:56;;;;;;;52.92;6.65;;;15.90;74.40;;;;;;10328539;28;20290;-56
2023/04/02 09:08:00;;;;;;;29.05;7.07;;;15.90;74.70;;;;;;10326578;28;20126;-55
2023/04/02 09:13:04;;;;;;;25.85;5.30;;;15.90;74.80;;;;;;10324228;28;20049;-56
2023/04/02 09:18:18;;;;;;;28.67;6.30;;;15.80;74.80;;;;;;10325885;28;20122;-55
2023/04/02 09:23:22;;;;;;;21.50;5.53;;;15.90;75.10;;;;;;10325827;28;20030;-55
2023/04/02 09:28:25;;;;;;;32.75;6.18;;;15.90;74.80;;;;;;10315708;28;20086;-55
2023/04/02 09:33:43;;;;;;;23.95;4.50;;;15.90;74.60;;;;;;10319735;28;20030;-56
2023/04/02 09:39:15;;;;;;;14.98;3.70;;;15.90;74.60;;;;;;10321187;28;20046;-55
2023/04/02 09:44:22;;;;;;;18.60;4.88;;;16.00;77.10;;;;;;10317547;28;20027;-55
2023/04/02 09:49:35;;;;;;;19.25;4.22;;;16.10;76.40;;;;;;10321871;28;20034;-57
2023/04/02 09:54:41;;;;;;;15.25;4.63;;;16.10;76.90;;;;;;10322606;28;20026;-53
2023/04/02 09:59:41;;;;;;;25.05;5.80;;;16.20;76.30;;;;;;10325852;28;20115;-57
2023/04/02 10:04:46;;;;;;;24.90;5.07;;;16.20;76.40;;;;;;10322620;28;20130;-55
2023/04/02 10:10:28;;;;;;;15.70;3.90;;;16.20;76.40;;;;;;10323295;28;20466;-56
2023/04/02 10:15:49;;;;;;;10.35;3.70;;;16.00;76.60;;;;;;10320676;28;20026;-54
2023/04/02 10:20:53;;;;;;;11.13;3.97;;;15.90;75.90;;;;;;10326013;28;20034;-56
2023/04/02 10:26:37;;;;;;;11.70;4.07;;;15.80;76.40;;;;;;10323452;28;20022;-54
2023/04/02 10:32:10;;;;;;;9.65;3.00;;;15.80;76.80;;;;;;10310641;28;20054;-56
2023/04/02 10:37:50;;;;;;;8.68;3.28;;;15.80;76.50;;;;;;10323462;28;20006;-55
2023/04/02 10:43:06;;;;;;;11.40;2.70;;;15.80;76.10;;;;;;10320283;28;20105;-57
2023/04/02 10:48:52;;;;;;;11.32;3.40;;;15.90;75.70;;;;;;10322676;28;20027;-56
2023/04/02 10:54:20;;;;;;;13.95;4.22;;;15.90;75.40;;;;;;10318578;28;20105;-56
2023/04/02 10:59:30;;;;;;;12.38;2.72;;;15.90;75.30;;;;;;10321204;28;20772;-56
2023/04/02 11:04:44;;;;;;;12.38;2.85;;;15.90;75.30;;;;;;10324061;28;20054;-56
2023/04/02 11:09:51;;;;;;;10.10;3.10;;;15.90;75.10;;;;;;10323009;28;20034;-57
2023/04/02 11:14:54;;;;;;;8.38;2.53;;;16.00;74.60;;;;;;10318780;28;20085;-55
2023/04/02 11:21:07;;;;;;;8.73;2.05;;;16.00;74.30;;;;;;10323664;28;20053;-57
2023/04/02 11:26:36;;;;;;;8.98;2.15;;;16.00;74.20;;;;;;10296877;28;20100;-56
2023/04/02 11:31:37;;;;;;;8.60;2.50;;;16.10;74.00;;;;;;10313394;28;20054;-55
2023/04/02 11:36:49;;;;;;;5.93;2.72;;;16.10;73.40;;;;;;10321493;28;20022;-55
2023/04/02 11:42:20;;;;;;;9.55;2.83;;;16.10;73.30;;;;;;10320913;28;20026;-58
2023/04/02 11:47:24;;;;;;;10.80;2.15;;;16.10;73.00;;;;;;10323705;28;20030;-57
2023/04/02 11:52:49;;;;;;;5.03;2.28;;;16.10;72.80;;;;;;10322224;28;20113;-57
2023/04/02 11:58:16;;;;;;;18.88;3.97;;;16.20;72.70;;;;;;10319247;28;20034;-57
2023/04/02 12:03:55;;;;;;;14.10;2.92;;;16.30;72.30;;;;;;10318502;28;20487;-58
2023/04/02 12:09:13;;;;;;;15.15;5.93;;;16.30;71.70;;;;;;10306222;28;20050;-60
2023/04/02 12:14:51;;;;;;;24.55;4.80;;;16.30;70.90;;;;;;10321187;28;20026;-55
2023/04/02 12:20:19;;;;;;;22.35;4.63;;;16.30;71.40;;;;;;10320597;28;20026;-54
2023/04/02 12:25:20;;;;;;;15.60;3.00;;;16.40;71.50;;;;;;10318633;28;20073;-56
2023/04/02 12:30:22;;;;;;;21.65;4.38;;;16.40;71.50;;;;;;10317381;28;20034;-55
2023/04/02 12:35:32;;;;;;;16.63;4.53;;;16.40;70.70;;;;;;10322576;28;20030;-54
2023/04/02 12:40:32;;;;;;;;;;;16.30;69.60;;;;;;10319874;28;20608;-56
2023/04/02 12:45:35;;;;;;;15.25;3.42;;;16.30;68.90;;;;;;10323260;28;19992;-56
2023/04/02 12:50:36;;;;;;;8.73;3.20;;;16.30;69.30;;;;;;10322048;28;20027;-54
2023/04/02 12:55:37;;;;;;;9.70;2.92;;;16.30;69.10;;;;;;10304901;28;20125;-56
2023/04/02 13:00:38;;;;;;;7.57;3.67;;;16.30;69.20;;;;;;10326301;28;20026;-54
2023/04/02 13:05:49;;;;;;;11.32;2.65;;;16.40;69.10;;;;;;10318332;28;20046;-56
2023/04/02 13:11:02;;;;;;;8.98;2.47;;;16.30;68.60;;;;;;10335443;28;20035;-54
2023/04/02 13:16:27;;;;;;;7.10;1.92;;;16.40;68.60;;;;;;10320222;28;20046;-54
2023/04/02 13:21:30;;;;;;;5.07;2.25;;;16.30;68.10;;;;;;10316955;28;20030;-56
2023/04/02 13:26:31;;;;;;;8.20;2.35;;;16.40;67.80;;;;;;10320974;28;20038;-56
2023/04/02 13:31:32;;;;;;;5.55;2.15;;;16.30;67.50;;;;;;10317979;28;20449;-54
2023/04/02 13:36:33;;;;;;;8.20;2.67;;;16.40;67.70;;;;;;10320546;28;20022;-55
2023/04/02 13:41:47;;;;;;;5.82;2.15;;;16.40;68.00;;;;;;10317954;28;20007;-56
2023/04/02 13:46:48;;;;;;;5.88;1.60;;;16.40;67.80;;;;;;10329899;28;20066;-56
2023/04/02 13:51:59;;;;;;;8.55;2.45;;;16.40;67.90;;;;;;10316483;28;20023;-54
2023/04/02 13:57:00;;;;;;;4.90;2.33;;;16.40;67.60;;;;;;10316280;28;20022;-55
2023/04/02 14:02:10;;;;;;;9.60;2.15;;;16.40;67.70;;;;;;10317828;28;20077;-54
2023/04/02 14:07:50;;;;;;;6.80;1.95;;;16.40;67.50;;;;;;10331323;28;20787;-55
2023/04/02 14:12:54;;;;;;;16.42;1.88;;;16.40;67.50;;;;;;10286739;28;20038;-56
2023/04/02 14:18:59;;;;;;;6.68;2.42;;;16.40;67.10;;;;;;10323685;28;20114;-57
2023/04/02 14:24:30;;;;;;;12.43;2.25;;;16.30;66.50;;;;;;10234352;28;20027;-57
2023/04/02 14:30:07;;;;;;;5.93;1.70;;;16.50;67.30;;;;;;10315169;28;20072;-56
2023/04/02 14:35:41;;;;;;;12.38;2.42;;;16.50;66.90;;;;;;10324459;28;20030;-56
2023/04/02 14:40:50;;;;;;;9.45;1.83;;;16.50;66.70;;;;;;10312664;28;20015;-57
2023/04/02 14:45:53;;;;;;;3.80;1.70;;;16.50;66.40;;;;;;10319896;28;20023;-56
2023/04/02 14:51:14;;;;;;;11.95;2.60;;;16.40;66.60;;;;;;10322641;28;20042;-59
2023/04/02 14:56:17;;;;;;;10.00;1.67;;;16.40;65.70;;;;;;10307212;28;20042;-59
2023/04/02 15:01:25;;;;;;;9.63;1.63;;;16.50;65.30;;;;;;10294513;28;20027;-57
2023/04/02 15:06:36;;;;;;;7.35;1.65;;;16.50;65.20;;;;;;10314171;28;20661;-57
2023/04/02 15:11:43;;;;;;;3.42;1.48;;;16.50;65.20;;;;;;10319121;28;20049;-56
2023/04/02 15:16:44;;;;;;;5.63;1.20;;;16.50;65.00;;;;;;10314716;28;20027;-55
2023/04/02 15:22:26;;;;;;;6.80;1.95;;;16.40;64.80;;;;;;10319835;28;20412;-55
2023/04/02 15:28:20;;;;;;;6.80;1.33;;;16.40;64.30;;;;;;10323144;28;20518;-57
2023/04/02 15:33:46;;;;;;;12.95;2.45;;;16.40;63.50;;;;;;10297236;28;20042;-55
2023/04/02 15:38:57;;;;;;;8.88;2.90;;;16.40;63.30;;;;;;10301748;28;20046;-54
2023/04/02 15:44:11;;;;;;;22.55;4.88;;;16.40;63.50;;;;;;10320675;28;20054;-56
2023/04/02 15:49:27;;;;;;;15.25;3.95;;;16.60;64.10;;;;;;10318578;28;20037;-54
2023/04/02 15:55:25;;;;;;;18.77;4.15;;;16.80;63.80;;;;;;10316740;28;20034;-56
2023/04/02 16:00:31;;;;;;;60.58;10.88;;;16.90;62.50;;;;;;10281214;28;20035;-59
2023/04/02 16:05:42;;;;;;;38.67;11.00;;;17.20;63.30;;;;;;10317802;28;20081;-56
2023/04/02 16:10:44;;;;;;;39.33;8.18;;;17.30;62.70;;;;;;10327700;28;20074;-56
2023/04/02 16:16:31;;;;;;;45.28;14.85;;;17.30;63.60;;;;;;10331980;28;20022;-56
2023/04/02 16:21:38;;;;;;;39.88;11.18;;;17.20;63.80;;;;;;10325978;28;20040;-58
2023/04/02 16:27:42;;;;;;;34.03;8.07;;;17.20;64.20;;;;;;10315284;28;20466;-56
2023/04/02 16:33:20;;;;;;;31.20;7.82;;;17.30;64.40;;;;;;10265968;28;20166;-56
2023/04/02 16:38:57;;;;;;;17.27;5.57;;;17.20;64.40;;;;;;10331197;28;20038;-55
2023/04/02 16:44:29;;;;;;;18.48;6.15;;;17.10;64.50;;;;;;10321583;28;20029;-54
2023/04/02 16:50:10;;;;;;;22.05;4.90;;;17.20;65.00;;;;;;10331204;28;20350;-56
2023/04/02 16:55:45;;;;;;;;;;;17.40;66.10;;;;;;10330218;28;20206;-58
2023/04/02 17:01:11;;;;;;;12.23;4.80;;;17.40;66.30;;;;;;10333089;28;20674;-56
2023/04/02 17:06:43;;;;;;;12.50;4.22;;;17.30;66.70;;;;;;10345583;28;20050;-56
2023/04/02 17:11:50;;;;;;;28.60;5.05;;;16.90;67.50;;;;;;10333802;28;20505;-57
2023/04/02 17:16:59;;;;;;;22.02;6.25;;;16.80;67.90;;;;;;10331844;28;20364;-57
2023/04/02 17:22:03;;;;;;;19.25;5.45;;;16.70;68.30;;;;;;10327531;28;20035;-57
2023/04/02 17:27:37;;;;;;;18.65;4.90;;;16.60;68.30;;;;;;10319237;28;20413;-56
2023/04/02 17:32:37;;;;;;;20.42;4.45;;;16.80;67.70;;;;;;10316961;28;20057;-55
2023/04/02 17:37:46;;;;;;;19.05;5.00;;;16.70;67.40;;;;;;10314192;28;20102;-57
2023/04/02 17:43:08;;;;;;;14.02;4.35;;;16.50;67.40;;;;;;10324560;28;20377;-56
2023/04/02 17:48:35;;;;;;;15.50;4.63;;;16.40;67.80;;;;;;10326150;28;20054;-55
2023/04/02 17:53:57;;;;;;;15.75;4.07;;;16.40;68.00;;;;;;10314550;28;20022;-56
2023/04/02 17:59:35;;;;;;;11.20;3.55;;;16.30;67.90;;;;;;10342058;28;20186;-58
2023/04/02 18:04:41;;;;;;;14.50;3.33;;;16.30;68.00;;;;;;10325234;28;20031;-59
2023/04/02 18:10:21;;;;;;;11.23;3.75;;;16.30;68.30;;;;;;10324626;28;20042;-58
2023/04/02 18:15:42;;;;;;;9.73;3.47;;;16.20;68.30;;;;;;10324695;28;20038;-56
2023/04/02 18:21:19;;;;;;;12.52;3.55;;;16.20;68.40;;;;;;10324132;28;20448;-58
2023/04/02 18:26:46;;;;;;;15.95;3.40;;;16.20;68.20;;;;;;10324931;28;20025;-58
2023/04/02 18:31:49;;;;;;;8.60;3.10;;;16.10;68.20;;;;;;10323807;28;20113;-58
2023/04/02 18:37:14;;;;;;;7.82;3.38;;;16.10;68.20;;;;;;10324732;28;20023;-57
2023/04/02 18:42:57;;;;;;;8.73;2.97;;;16.20;68.30;;;;;;10324383;28;20481;-58
2023/04/02 18:48:29;;;;;;;7.53;3.35;;;16.10;68.40;;;;;;10337544;28;20049;-58
2023/04/02 18:53:31;;;;;;;9.27;2.25;;;16.10;68.50;;;;;;10324425;28;20018;-58
2023/04/02 18:58:48;;;;;;;4.03;1.80;;;16.10;68.50;;;;;;10321528;28;20026;-57
2023/04/02 19:04:01;;;;;;;7.82;2.72;;;16.10;68.70;;;;;;10300991;28;20497;-56
2023/04/02 19:09:20;;;;;;;5.68;2.45;;;16.00;68.70;;;;;;10322797;28;20042;-56
2023/04/02 19:14:22;;;;;;;7.00;2.53;;;16.00;68.90;;;;;;10322477;28;20027;-56
2023/04/02 19:19:34;;;;;;;5.45;1.55;;;15.90;69.00;;;;;;10324369;28;20022;-58
2023/04/02 19:24:56;;;;;;;2.88;1.67;;;15.90;68.80;;;;;;10322167;28;20030;-57
2023/04/02 19:30:31;;;;;;;5.35;1.85;;;15.90;69.00;;;;;;10321052;28;20050;-58
2023/04/02 19:35:58;;;;;;;4.03;1.40;;;15.90;68.90;;;;;;10321614;28;20046;-57
2023/04/02 19:41:14;;;;;;;4.07;2.05;;;15.80;68.50;;;;;;10322400;28;20025;-58
2023/04/02 19:46:15;;;;;;;2.70;1.27;;;15.80;68.60;;;;;;10320900;28;20553;-58
2023/04/02 19:51:16;;;;;;;2.78;1.05;;;15.80;68.30;;;;;;10322881;28;20037;-58
2023/04/02 19:56:16;;;;;;;3.25;1.50;;;15.80;68.10;;;;;;10324204;28;20389;-58
2023/04/02 20:01:17;;;;;;;3.47;1.30;;;15.80;67.90;;;;;;10333580;28;20469;-58
2023/04/02 20:06:20;;;;;;;3.08;1.13;;;15.70;67.70;;;;;;10323693;28;20046;-56
2023/04/02 20:11:21;;;;;;;5.40;1.92;;;15.70;67.80;;;;;;10324538;28;20848;-58
2023/04/02 20:16:22;;;;;;;3.72;1.42;;;15.80;72.00;;;;;;10323601;28;20454;-58
2023/04/02 20:21:23;;;;;;;2.30;1.10;;;15.90;71.40;;;;;;10323456;28;20031;-58
2023/04/02 20:26:24;;;;;;;3.40;1.73;;;15.90;71.60;;;;;;10323629;28;20026;-58
2023/04/02 20:31:25;;;;;;;3.67;1.63;;;15.90;70.80;;;;;;10322547;28;20034;-58
2023/04/02 20:36:26;;;;;;;3.10;1.38;;;15.80;70.70;;;;;;10323586;28;20035;-57
2023/04/02 20:41:27;;;;;;;3.05;1.15;;;15.80;69.40;;;;;;10323135;28;20027;-58
2023/04/02 20:46:27;;;;;;;3.65;1.15;;;15.80;69.50;;;;;;10322010;28;20362;-55
2023/04/02 20:51:28;;;;;;;2.50;1.30;;;15.80;69.60;;;;;;10320826;28;20034;-57
2023/04/02 20:56:29;;;;;;;3.50;1.25;;;15.80;68.50;;;;;;10323148;28;20466;-58
2023/04/02 21:01:30;;;;;;;6.65;2.80;;;15.70;68.40;;;;;;10340471;28;20623;-57
2023/04/02 21:06:35;;;;;;;4.20;1.77;;;15.70;68.60;;;;;;10330079;28;20062;-58
2023/04/02 21:11:36;;;;;;;2.25;1.23;;;15.60;68.10;;;;;;10329967;28;20053;-58
2023/04/02 21:16:39;;;;;;;2.88;0.90;;;15.60;68.20;;;;;;10329941;28;20025;-56
2023/04/02 21:21:39;;;;;;;2.30;1.17;;;15.60;68.20;;;;;;10329925;28;20027;-58
2023/04/02 21:26:40;;;;;;;2.08;1.00;;;15.60;68.00;;;;;;10329768;28;20022;-58
2023/04/02 21:31:42;;;;;;;3.08;0.90;;;15.60;67.80;;;;;;10329277;28;20018;-58
2023/04/02 21:36:45;;;;;;;1.83;0.90;;;15.50;67.60;;;;;;10329113;28;20057;-57
2023/04/02 21:41:49;;;;;;;2.83;0.90;;;15.50;67.70;;;;;;10328163;28;20015;-58
2023/04/02 21:46:50;;;;;;;2.13;0.90;;;15.50;67.50;;;;;;10329365;28;20050;-58
2023/04/02 21:51:51;;;;;;;2.00;1.05;;;15.50;67.40;;;;;;10328679;28;20015;-58
2023/04/02 21:56:52;;;;;;;4.13;1.33;;;15.50;67.50;;;;;;10328814;28;20097;-59
2023/04/02 22:01:53;;;;;;;1.92;0.93;;;15.50;67.30;;;;;;10339132;28;20034;-58
2023/04/02 22:06:53;;;;;;;2.22;0.90;;;15.40;67.10;;;;;;10327848;28;20662;-58
2023/04/02 22:12:01;;;;;;;1.27;0.90;;;15.50;67.10;;;;;;10327963;28;20069;-57
2023/04/02 22:17:02;;;;;;;1.73;0.70;;;15.40;67.20;;;;;;10326656;28;20022;-58
2023/04/02 22:22:03;;;;;;;2.20;0.98;;;15.40;67.00;;;;;;10327988;28;20116;-57
2023/04/02 22:27:03;;;;;;;2.38;0.90;;;15.40;66.90;;;;;;10327447;28;20026;-57
2023/04/02 22:32:04;;;;;;;1.95;0.90;;;15.40;66.90;;;;;;10327062;28;20044;-58
2023/04/02 22:37:05;;;;;;;2.47;1.25;;;15.40;67.50;;;;;;10326682;28;20112;-58
2023/04/02 22:42:06;;;;;;;2.22;0.73;;;15.40;66.70;;;;;;10326729;28;20025;-59
2023/04/02 22:47:06;;;;;;;1.30;0.90;;;15.40;66.70;;;;;;10325392;28;20826;-58
2023/04/02 22:52:07;;;;;;;1.92;0.88;;;15.30;66.70;;;;;;10326886;28;20050;-58
2023/04/02 22:57:08;;;;;;;2.45;0.90;;;15.30;66.50;;;;;;10326543;28;20032;-58
2023/04/02 23:02:09;;;;;;;1.58;0.80;;;15.30;66.60;;;;;;10336823;28;20103;-58
2023/04/02 23:07:10;;;;;;;3.22;1.08;;;15.30;66.70;;;;;;10325769;28;20569;-58
2023/04/02 23:12:11;;;;;;;1.25;0.70;;;15.30;66.30;;;;;;10325454;28;20014;-59
2023/04/02 23:17:11;;;;;;;2.13;0.80;;;15.30;66.30;;;;;;10325246;28;20054;-58
2023/04/02 23:22:12;;;;;;;1.42;0.75;;;15.30;66.30;;;;;;10324262;28;20138;-57
2023/04/02 23:27:13;;;;;;;1.85;1.15;;;15.20;66.20;;;;;;10325217;28;20026;-58
2023/04/02 23:32:15;;;;;;;1.75;0.73;;;15.20;66.20;;;;;;10324754;28;20450;-58
2023/04/02 23:37:15;;;;;;;2.03;0.90;;;15.20;66.20;;;;;;10324241;28;20026;-58
2023/04/02 23:42:16;;;;;;;2.72;1.13;;;15.20;66.20;;;;;;10324474;28;20049;-57
2023/04/02 23:47:17;;;;;;;2.03;1.05;;;15.10;66.20;;;;;;10324024;28;20139;-56
2023/04/02 23:52:17;;;;;;;2.70;0.73;;;15.10;65.90;;;;;;10324015;28;20018;-56
2023/04/02 23:57:18;;;;;;;1.17;0.70;;;15.20;66.00;;;;;;10324094;28;20045;-58
